Time;durP1;ratioP1;P1;durP2;ratioP2;P2;SDS_P1;SDS_P2;PMS_P1;PMS_P2;Temp;Humidity;BMP_temperature;BMP_pressure;BME280_temperature;BME280_humidity;BME280_pressure;Samples;Min_cycle;Max_cycle;Signal;HPM_P1;HPM_P2
2023/03/31 00:00:10;;;;;;;5.25;1.50;;;;;;;19.24;47.33;100323.13;5036043;28;20055;-73
2023/03/31 00:02:36;;;;;;;4.72;1.33;;;;;;;19.25;47.28;100320.34;5029102;28;20029;-71
2023/03/31 00:05:02;;;;;;;6.15;1.60;;;;;;;19.24;47.11;100310.75;5024205;28;20041;-73
2023/03/31 00:07:27;;;;;;;5.03;1.58;;;;;;;19.24;47.26;100302.81;5033586;28;20047;-75
2023/03/31 00:09:54;;;;;;;3.75;1.38;;;;;;;19.24;47.34;100286.97;5040853;28;20035;-74
2023/03/31 00:12:20;;;;;;;6.00;1.83;;;;;;;19.22;47.08;100278.38;5041360;28;20037;-73
2023/03/31 00:14:46;;;;;;;5.93;1.55;;;;;;;19.19;47.25;100271.56;5003406;28;20139;-73
2023/03/31 00:17:11;;;;;;;4.75;1.50;;;;;;;19.20;47.10;100269.75;5024555;28;20091;-73
2023/03/31 00:19:36;;;;;;;5.63;1.65;;;;;;;19.21;47.38;100266.94;5025696;28;20057;-73
2023/03/31 00:22:04;;;;;;;5.32;1.90;;;;;;;19.19;47.28;100253.06;5025287;28;20029;-72
2023/03/31 00:24:33;;;;;;;4.72;1.60;;;;;;;19.20;47.15;100249.47;5021164;28;20030;-71
2023/03/31 00:27:02;;;;;;;6.57;1.45;;;;;;;19.16;47.29;100241.97;5021212;28;20063;-73
2023/03/31 00:29:28;;;;;;;4.47;1.58;;;;;;;19.15;47.26;100233.22;5023334;28;20037;-73
2023/03/31 00:31:54;;;;;;;4.13;1.27;;;;;;;19.18;47.35;100234.72;5020855;28;20401;-73
2023/03/31 00:34:19;;;;;;;4.45;1.50;;;;;;;19.15;47.26;100225.31;5015518;28;20033;-74
2023/03/31 00:36:46;;;;;;;4.93;1.67;;;;;;;19.17;47.24;100225.97;5038456;28;20527;-74
2023/03/31 00:39:13;;;;;;;4.13;1.20;;;;;;;19.16;47.30;100220.84;5031832;28;20037;-73
2023/03/31 00:41:39;;;;;;;4.80;1.58;;;;;;;19.17;47.22;100222.50;5020957;28;20117;-73
2023/03/31 00:44:28;;;;;;;6.03;1.50;;;;;;;19.15;47.57;100212.09;5026366;28;20496;-74
2023/03/31 00:47:09;;;;;;;4.55;1.63;;;;;;;19.12;47.38;100201.81;5029502;28;20064;-72
2023/03/31 00:49:44;;;;;;;4.47;1.33;;;;;;;19.14;47.21;100205.13;5024691;28;20033;-72
2023/03/31 00:52:20;;;;;;;4.30;1.40;;;;;;;19.11;47.08;100197.50;5030807;28;20052;-73
2023/03/31 00:54:50;;;;;;;4.40;1.40;;;;;;;19.12;47.40;100193.03;5030624;28;20048;-73
2023/03/31 00:57:16;;;;;;;4.50;1.38;;;;;;;19.11;47.29;100186.13;5037177;28;20068;-72
2023/03/31 00:59:46;;;;;;;4.35;1.50;;;;;;;19.12;47.28;100188.63;5029935;28;20663;-72
2023/03/31 01:02:13;;;;;;;3.78;1.30;;;;;;;19.11;47.27;100184.28;5036768;28;20030;-73
2023/03/31 01:04:45;;;;;;;5.35;1.30;;;;;;;19.11;47.28;100180.84;5035664;28;20033;-73
2023/03/31 01:07:22;;;;;;;4.13;1.40;;;;;;;19.08;47.28;100174.03;5036226;28;20099;-73
2023/03/31 01:09:53;;;;;;;4.38;1.55;;;;;;;19.11;47.33;100165.00;5036688;28;20512;-72
2023/03/31 01:12:20;;;;;;;4.03;1.20;;;;;;;19.10;47.23;100166.78;5035023;28;20121;-73
2023/03/31 01:14:48;;;;;;;4.65;1.48;;;;;;;19.08;47.35;100163.47;5035001;28;20127;-73
2023/03/31 01:17:17;;;;;;;4.03;1.40;;;;;;;19.11;47.27;100165.00;5038116;28;20025;-72
2023/03/31 01:20:12;;;;;;;4.18;1.48;;;;;;;19.07;47.42;100151.22;5034393;28;20072;-74
2023/03/31 01:23:01;;;;;;;5.53;1.40;;;;;;;19.05;47.41;100147.91;5029444;28;20560;-73
2023/03/31 01:25:51;;;;;;;3.58;1.20;;;;;;;19.09;47.43;100151.06;5033845;28;20029;-74
2023/03/31 01:28:22;;;;;;;4.43;1.33;;;;;;;19.05;47.14;100139.16;5036009;28;20037;-72
2023/03/31 01:31:10;;;;;;;4.68;1.38;;;;;;;19.07;47.32;100132.75;5035254;28;20039;-72
2023/03/31 01:33:59;;;;;;;5.00;1.30;;;;;;;19.07;47.32;100137.19;5036829;28;20032;-72
2023/03/31 01:36:53;;;;;;;3.92;1.40;;;;;;;19.05;47.38;100124.16;5030029;28;20044;-74
2023/03/31 01:39:25;;;;;;;4.57;1.27;;;;;;;19.07;47.31;100119.53;5041669;28;20394;-73
2023/03/31 01:42:11;;;;;;;4.30;1.10;;;;;;;19.07;47.38;100127.47;5043330;28;20028;-73
2023/03/31 01:44:50;;;;;;;4.75;1.30;;;;;;;19.02;47.36;100108.59;5039979;28;20437;-72
2023/03/31 01:47:30;;;;;;;3.50;1.40;;;;;;;19.03;47.45;100103.16;5024294;28;20541;-74
2023/03/31 01:50:07;;;;;;;5.72;1.40;;;;;;;19.00;47.42;100092.91;5024026;28;20037;-72
2023/03/31 01:52:54;;;;;;;5.45;1.70;;;;;;;19.03;47.58;100091.78;5042432;28;20036;-74
2023/03/31 01:55:25;;;;;;;5.13;1.35;;;;;;;19.02;47.36;100074.25;5023521;28;20430;-72
2023/03/31 01:58:12;;;;;;;5.25;1.50;;;;;;;18.99;47.42;100059.56;5042023;28;20120;-73
2023/03/31 02:00:42;;;;;;;4.20;1.10;;;;;;;18.98;47.48;100060.53;5028708;28;20041;-74
2023/03/31 02:03:20;;;;;;;4.28;1.30;;;;;;;18.99;47.46;100051.66;5028859;28;20492;-73
2023/03/31 02:05:51;;;;;;;5.28;1.55;;;;;;;18.99;47.44;100048.16;5026789;28;20107;-73
2023/03/31 02:08:23;;;;;;;6.70;1.50;;;;;;;18.98;47.36;100041.22;5023647;28;20037;-73
2023/03/31 02:10:51;;;;;;;4.93;1.42;;;;;;;18.98;47.41;100026.22;5042418;28;20037;-73
2023/03/31 02:13:17;;;;;;;4.28;1.25;;;;;;;18.98;47.43;100020.94;5042965;28;20036;-72
2023/03/31 02:15:48;;;;;;;3.63;1.10;;;;;;;18.97;47.48;100013.16;5027717;28;20332;-73
2023/03/31 02:18:17;;;;;;;4.32;1.52;;;;;;;18.97;47.51;100003.41;5035014;28;20036;-72
2023/03/31 02:20:46;;;;;;;4.20;1.35;;;;;;;18.95;47.63;99992.19;5042927;28;20052;-72
2023/03/31 02:23:14;;;;;;;4.72;1.20;;;;;;;18.94;47.48;99987.88;5043373;28;20382;-73
2023/03/31 02:25:52;;;;;;;4.28;1.30;;;;;;;18.96;47.74;99987.72;5034366;28;20061;-72
2023/03/31 02:28:24;;;;;;;4.43;1.35;;;;;;;18.96;47.56;99972.72;5005367;28;20041;-72
2023/03/31 02:31:05;;;;;;;5.93;1.75;;;;;;;18.96;47.46;99962.16;5023409;28;20071;-72
2023/03/31 02:33:31;;;;;;;5.15;1.33;;;;;;;18.95;47.42;99955.22;5024008;28;20421;-73
2023/03/31 02:35:58;;;;;;;4.28;1.30;;;;;;;18.92;47.58;99949.41;5057934;28;20041;-72
2023/03/31 02:38:23;;;;;;;4.97;1.20;;;;;;;18.93;47.57;99930.78;5040568;28;20036;-72
2023/03/31 02:40:49;;;;;;;5.32;1.23;;;;;;;18.91;47.56;99911.59;5042931;28;20037;-72
2023/03/31 02:43:14;;;;;;;5.10;1.30;;;;;;;18.92;47.63;99913.28;5057867;28;20033;-72
2023/03/31 02:45:44;;;;;;;4.22;1.17;;;;;;;18.95;47.70;99920.06;5036601;28;20052;-73
2023/03/31 02:48:16;;;;;;;3.88;1.55;;;;;;;18.92;47.48;99917.72;5023012;28;20079;-74
2023/03/31 02:50:53;;;;;;;5.82;1.88;;;;;;;18.93;47.73;99903.53;5038566;28;20068;-73
2023/03/31 02:53:37;;;;;;;4.45;1.30;;;;;;;18.93;47.46;99885.06;5042520;28;20029;-74
2023/03/31 02:56:27;;;;;;;4.55;1.33;;;;;;;18.91;47.40;99868.53;5042213;28;20056;-72
2023/03/31 02:59:20;;;;;;;3.25;1.15;;;;;;;18.89;47.56;99857.31;5044794;28;20132;-72
2023/03/31 03:02:21;;;;;;;4.78;1.48;;;;;;;18.90;47.53;99851.88;5039881;28;20057;-73
2023/03/31 03:05:18;;;;;;;5.65;1.50;;;;;;;18.91;47.53;99850.06;5022407;28;20044;-73
2023/03/31 03:07:53;;;;;;;6.18;1.40;;;;;;;18.92;47.62;99854.38;5038975;28;20134;-74
2023/03/31 03:10:18;;;;;;;6.18;1.77;;;;;;;18.91;47.73;99850.88;5032520;28;20041;-73
2023/03/31 03:13:10;;;;;;;5.27;1.40;;;;;;;18.90;47.66;99848.41;5027508;28;20041;-72
2023/03/31 03:16:06;;;;;;;4.60;1.42;;;;;;;18.90;47.87;99849.25;5023538;28;20259;-72
2023/03/31 03:18:31;;;;;;;4.38;1.40;;;;;;;18.89;47.68;99826.47;5017341;28;20045;-71
2023/03/31 03:20:56;;;;;;;5.13;1.50;;;;;;;18.88;47.86;99822.16;5022925;28;20123;-72
2023/03/31 03:23:22;;;;;;;6.30;2.08;;;;;;;18.90;47.66;99824.63;5024374;28;20106;-73
2023/03/31 03:25:47;;;;;;;4.35;1.25;;;;;;;18.88;47.75;99823.97;5030270;28;20033;-72
2023/03/31 03:28:12;;;;;;;5.20;1.27;;;;;;;18.89;47.56;99825.63;5035912;28;20490;-72
2023/03/31 03:30:38;;;;;;;4.35;1.55;;;;;;;18.86;47.76;99821.47;5022217;28;20038;-73
2023/03/31 03:33:05;;;;;;;4.82;1.50;;;;;;;18.86;47.65;99821.47;5021931;28;20069;-73
2023/03/31 03:35:31;;;;;;;4.20;1.25;;;;;;;18.81;47.69;99814.00;5022290;28;20482;-73
2023/03/31 03:37:56;;;;;;;4.32;1.52;;;;;;;18.86;47.75;99816.19;5046170;28;20054;-72
2023/03/31 03:40:21;;;;;;;4.18;1.23;;;;;;;18.84;47.71;99804.97;5035801;28;20033;-74
2023/03/31 03:42:47;;;;;;;6.63;1.38;;;;;;;18.82;47.92;99786.63;5023968;28;20083;-74
2023/03/31 03:45:12;;;;;;;5.65;1.45;;;;;;;18.82;47.71;99780.53;5041728;28;20049;-72
2023/03/31 03:47:37;;;;;;;5.72;1.23;;;;;;;18.84;47.39;99775.94;5028663;28;20401;-74
2023/03/31 03:50:04;;;;;;;4.90;1.55;;;;;;;18.85;47.53;99775.78;5023807;28;20091;-73
2023/03/31 03:52:29;;;;;;;5.22;1.65;;;;;;;18.84;47.36;99763.56;5027533;28;20033;-74
2023/03/31 03:54:55;;;;;;;5.68;1.27;;;;;;;18.81;47.41;99760.38;5029710;28;20098;-73
2023/03/31 03:57:20;;;;;;;5.40;1.48;;;;;;;18.84;47.61;99758.28;5034969;28;20057;-74
2023/03/31 03:59:45;;;;;;;5.72;1.27;;;;;;;18.83;47.63;99747.84;5034548;28;20064;-74
2023/03/31 04:02:11;;;;;;;4.93;1.30;;;;;;;18.83;47.57;99742.56;5013698;28;20041;-72
2023/03/31 04:04:36;;;;;;;5.15;1.20;;;;;;;18.81;47.66;99726.88;5036868;28;20080;-73
2023/03/31 04:07:01;;;;;;;4.75;1.30;;;;;;;18.83;47.70;99737.28;5034238;28;20035;-75
2023/03/31 04:09:27;;;;;;;5.00;1.10;;;;;;;18.79;47.66;99713.03;5026236;28;20052;-74
2023/03/31 04:11:53;;;;;;;5.80;1.30;;;;;;;18.79;47.75;99713.03;5023093;28;20052;-73
2023/03/31 04:14:18;;;;;;;5.82;1.38;;;;;;;18.79;47.68;99701.66;5030569;28;20106;-72
2023/03/31 04:16:45;;;;;;;4.38;1.38;;;;;;;18.80;47.83;99700.66;5040939;28;20037;-72
2023/03/31 04:19:13;;;;;;;5.88;1.30;;;;;;;18.78;47.79;99690.25;5025855;28;20436;-73
2023/03/31 04:21:44;;;;;;;3.00;0.90;;;;;;;18.80;47.61;99688.28;5020920;28;20057;-74
2023/03/31 04:24:11;;;;;;;4.13;0.90;;;;;;;18.79;47.67;99669.97;5023141;28;20036;-76
2023/03/31 04:26:42;;;;;;;5.07;1.40;;;;;;;18.80;47.67;99664.53;5021273;28;20037;-74
2023/03/31 04:29:12;;;;;;;5.28;1.23;;;;;;;18.79;47.67;99669.97;5036966;28;20048;-72
2023/03/31 04:31:41;;;;;;;3.35;1.00;;;;;;;18.79;47.62;99660.22;5040366;28;20044;-73
2023/03/31 04:34:12;;;;;;;4.63;1.35;;;;;;;18.78;47.54;99644.56;5025666;28;20038;-73
2023/03/31 04:36:45;;;;;;;4.45;1.20;;;;;;;18.77;47.78;99648.16;5032624;28;20048;-71
2023/03/31 04:39:29;;;;;;;2.97;1.00;;;;;;;18.78;47.58;99639.28;5034371;28;20044;-72
2023/03/31 04:41:56;;;;;;;3.90;1.00;;;;;;;18.76;47.56;99634.16;5020665;28;20474;-72
2023/03/31 04:44:21;;;;;;;5.20;1.40;;;;;;;18.78;47.64;99628.72;5021539;28;20029;-73
2023/03/31 04:46:46;;;;;;;4.22;1.38;;;;;;;18.77;47.69;99625.25;5022189;28;20567;-73
2023/03/31 04:49:12;;;;;;;3.20;1.10;;;;;;;18.78;47.54;99621.63;5027587;28;20064;-73
2023/03/31 04:51:37;;;;;;;4.72;1.33;;;;;;;18.75;47.34;99621.94;5034064;28;20179;-74
2023/03/31 04:54:02;;;;;;;4.82;1.25;;;;;;;18.75;47.37;99610.56;5030602;28;20028;-73
2023/03/31 04:56:28;;;;;;;3.88;1.10;;;;;;;18.76;47.62;99609.59;5040114;28;20032;-72
2023/03/31 04:58:53;;;;;;;4.28;1.20;;;;;;;18.77;47.36;99611.22;5032334;28;21026;-73
2023/03/31 05:01:18;;;;;;;4.53;1.40;;;;;;;18.74;47.64;99603.63;5039193;28;20169;-72
2023/03/31 05:03:46;;;;;;;4.50;1.35;;;;;;;18.77;47.45;99611.22;5035811;28;20032;-72
2023/03/31 05:06:13;;;;;;;4.13;1.20;;;;;;;18.75;47.42;99597.34;5010988;28;20033;-74
2023/03/31 05:08:38;;;;;;;4.50;1.17;;;;;;;18.77;47.43;99592.75;5032311;28;20033;-73
2023/03/31 05:11:03;;;;;;;3.10;1.10;;;;;;;18.74;47.52;99582.50;5037572;28;20666;-73
2023/03/31 05:13:29;;;;;;;4.38;1.10;;;;;;;18.77;47.52;99574.25;5037419;28;20068;-73
2023/03/31 05:15:54;;;;;;;3.25;0.90;;;;;;;18.76;47.35;99570.00;5022578;28;20083;-74
2023/03/31 05:18:20;;;;;;;3.10;1.00;;;;;;;18.75;47.46;99561.22;5028458;28;20047;-70
2023/03/31 05:20:45;;;;;;;4.35;1.27;;;;;;;18.76;47.42;99559.44;5025412;28;20050;-72
2023/03/31 05:23:11;;;;;;;5.40;1.25;;;;;;;18.76;47.42;99554.16;5029521;28;20036;-73
2023/03/31 05:25:36;;;;;;;4.47;1.13;;;;;;;18.75;47.37;99553.31;5036065;28;20082;-72
2023/03/31 05:28:02;;;;;;;3.05;0.98;;;;;;;18.75;47.32;99548.03;5039367;28;20037;-72
2023/03/31 05:30:28;;;;;;;2.75;1.00;;;;;;;18.75;47.21;99541.94;5032996;28;20064;-73
2023/03/31 05:32:54;;;;;;;3.92;1.10;;;;;;;18.78;47.41;99539.78;5037147;28;20033;-73
2023/03/31 05:35:20;;;;;;;4.40;1.25;;;;;;;18.78;47.35;99542.44;5028940;28;20068;-74
2023/03/31 05:37:46;;;;;;;4.32;1.25;;;;;;;18.80;47.70;99537.84;5040285;28;20060;-74
2023/03/31 05:40:11;;;;;;;4.43;1.20;;;;;;;18.80;47.35;99529.94;5033753;28;20041;-72
2023/03/31 05:42:37;;;;;;;4.07;0.90;;;;;;;18.86;47.53;99539.03;5030077;28;20039;-73
2023/03/31 05:45:04;;;;;;;4.22;1.15;;;;;;;18.83;47.54;99529.59;5041494;28;20081;-73
2023/03/31 05:47:30;;;;;;;4.65;1.23;;;;;;;18.85;47.56;99529.47;5041704;28;20037;-74
2023/03/31 05:49:55;;;;;;;3.40;0.85;;;;;;;18.86;47.63;99525.84;5042428;28;20099;-74
2023/03/31 05:52:20;;;;;;;3.53;0.90;;;;;;;18.89;47.56;99520.22;5043714;28;20037;-76
2023/03/31 05:54:46;;;;;;;3.40;1.17;;;;;;;18.93;47.53;99523.38;5043790;28;20040;-74
2023/03/31 05:57:11;;;;;;;3.95;1.00;;;;;;;18.95;47.39;99518.78;5027084;28;20649;-73
2023/03/31 05:59:37;;;;;;;3.30;0.98;;;;;;;18.96;47.57;99513.34;5035550;28;20470;-73
2023/03/31 06:02:03;;;;;;;3.13;0.90;;;;;;;18.95;47.96;99498.47;5039333;28;20025;-73
2023/03/31 06:04:30;;;;;;;3.83;1.15;;;;;;;18.97;47.90;99499.13;5030626;28;20068;-75
2023/03/31 06:06:56;;;;;;;3.75;1.00;;;;;;;19.00;47.86;99497.97;5043273;28;20397;-75
2023/03/31 06:09:22;;;;;;;4.18;1.40;;;;;;;19.01;48.13;99494.38;5028076;28;20056;-73
2023/03/31 06:11:47;;;;;;;3.25;0.88;;;;;;;19.05;48.34;99490.38;5031786;28;20072;-78
2023/03/31 06:14:13;;;;;;;3.17;1.00;;;;;;;19.05;48.17;99485.13;5034671;28;20039;-74
2023/03/31 06:16:38;;;;;;;3.97;1.17;;;;;;;19.05;48.13;99469.28;5026272;28;20453;-76
2023/03/31 06:19:04;;;;;;;3.60;1.08;;;;;;;19.06;48.18;99468.28;5035447;28;20037;-75
2023/03/31 06:21:29;;;;;;;3.47;0.90;;;;;;;19.08;48.08;99465.50;5036074;28;20556;-77
2023/03/31 06:23:57;;;;;;;4.47;1.27;;;;;;;19.09;48.29;99464.47;5044871;28;20040;-74
2023/03/31 06:26:23;;;;;;;3.83;0.85;;;;;;;19.07;48.09;99464.63;5028723;28;20064;-73
2023/03/31 06:28:49;;;;;;;3.80;1.00;;;;;;;19.09;48.33;99459.19;5016226;28;20055;-75
2023/03/31 06:31:20;;;;;;;5.40;1.00;;;;;;;19.06;48.39;99444.53;5030993;28;20541;-73
2023/03/31 06:33:46;;;;;;;3.63;1.10;;;;;;;19.08;48.63;99452.28;5029135;28;20060;-73
2023/03/31 06:36:16;;;;;;;4.93;1.10;;;;;;;19.09;48.55;99460.03;5032858;28;20056;-73
2023/03/31 06:38:41;;;;;;;3.13;1.13;;;;;;;19.12;48.31;99461.50;5033814;28;20119;-73
2023/03/31 06:41:10;;;;;;;3.80;1.40;;;;;;;19.12;48.56;99458.88;5027667;28;20341;-71
2023/03/31 06:43:35;;;;;;;5.82;1.38;;;;;;;19.13;48.43;99453.44;5028498;28;20110;-77
2023/03/31 06:46:00;;;;;;;2.22;0.85;;;;;;;19.14;48.63;99457.72;5040599;28;20028;-73
2023/03/31 06:48:26;;;;;;;5.15;1.00;;;;;;;19.14;48.62;99456.91;5041676;28;20394;-74
2023/03/31 06:50:53;;;;;;;4.53;1.38;;;;;;;19.16;48.54;99466.31;5036867;28;20382;-73
2023/03/31 06:53:18;;;;;;;3.90;1.00;;;;;;;19.15;48.41;99458.53;5034538;28;20037;-73
2023/03/31 06:55:44;;;;;;;3.72;1.05;;;;;;;19.13;48.33;99439.41;5031660;28;20038;-73
2023/03/31 06:58:10;;;;;;;3.53;1.03;;;;;;;19.12;48.45;99453.59;5037770;28;20036;-73
2023/03/31 07:00:36;;;;;;;4.25;1.08;;;;;;;19.14;48.43;99449.00;5023622;28;20266;-72
2023/03/31 07:03:03;;;;;;;5.45;1.27;;;;;;;19.11;48.36;99458.06;5035158;28;20083;-73
2023/03/31 07:05:29;;;;;;;4.07;1.05;;;;;;;19.08;48.33;99431.97;5006314;28;20030;-76
2023/03/31 07:07:57;;;;;;;4.88;1.33;;;;;;;19.13;48.57;99461.34;5026389;28;20034;-72
2023/03/31 07:10:23;;;;;;;4.05;0.98;;;;;;;19.12;48.65;99451.78;5016212;28;20037;-75
2023/03/31 07:12:49;;;;;;;4.65;1.02;;;;;;;19.14;48.41;99435.78;5029510;28;20033;-73
2023/03/31 07:15:15;;;;;;;4.30;1.17;;;;;;;19.12;48.65;99435.09;5038879;28;20481;-73
2023/03/31 07:17:41;;;;;;;4.38;1.00;;;;;;;19.14;48.44;99431.31;5039902;28;20058;-73
2023/03/31 07:20:14;;;;;;;3.20;1.00;;;;;;;19.13;48.35;99436.75;5041980;28;20485;-73
2023/03/31 07:22:43;;;;;;;3.67;1.00;;;;;;;19.13;48.57;99434.13;5028812;28;20029;-74
2023/03/31 07:25:10;;;;;;;3.40;0.93;;;;;;;19.10;48.48;99424.69;5034299;28;20072;-73
2023/03/31 07:27:36;;;;;;;4.60;1.30;;;;;;;19.12;48.64;99417.47;5031071;28;20044;-73
2023/03/31 07:30:04;;;;;;;3.63;1.35;;;;;;;19.12;48.49;99416.63;5034066;28;20127;-74
2023/03/31 07:32:29;;;;;;;3.90;1.30;;;;;;;19.13;48.92;99415.63;5034723;28;20450;-74
2023/03/31 07:34:55;;;;;;;4.95;1.20;;;;;;;19.10;48.57;99416.78;5034623;28;20115;-73
2023/03/31 07:37:20;;;;;;;5.22;1.27;;;;;;;19.11;48.57;99421.09;5036100;28;20037;-72
2023/03/31 07:39:45;;;;;;;4.15;1.10;;;;;;;19.12;48.68;99411.34;5057739;28;20602;-74
2023/03/31 07:42:11;;;;;;;6.53;1.23;;;;;;;19.10;48.40;99414.13;5023052;28;20468;-72
2023/03/31 07:44:36;;;;;;;5.53;1.10;;;;;;;19.09;48.63;99409.03;5044731;28;20036;-72
2023/03/31 07:47:04;;;;;;;4.05;1.10;;;;;;;19.09;48.66;99409.88;5036016;28;20029;-73
2023/03/31 07:49:31;;;;;;;5.22;1.25;;;;;;;19.10;48.60;99413.31;5032416;28;20445;-70
2023/03/31 07:51:56;;;;;;;3.63;1.05;;;;;;;19.09;48.23;99404.59;5025447;28;20207;-70
2023/03/31 07:54:22;;;;;;;4.85;1.13;;;;;;;19.13;48.47;99407.72;5042396;28;20624;-72
2023/03/31 07:56:48;;;;;;;4.28;1.20;;;;;;;19.07;48.46;99400.44;5041413;28;20106;-70
2023/03/31 07:59:13;;;;;;;5.13;1.40;;;;;;;19.10;48.46;99403.59;5032971;28;20040;-70
2023/03/31 08:01:39;;;;;;;5.05;1.33;;;;;;;19.09;48.46;99393.19;5039891;28;20033;-71
2023/03/31 08:04:04;;;;;;;4.93;1.20;;;;;;;19.08;48.29;99397.66;5033315;28;20504;-69
2023/03/31 08:06:30;;;;;;;5.25;1.40;;;;;;;19.05;48.37;99391.88;5022058;28;20528;-72
2023/03/31 08:08:56;;;;;;;4.45;1.15;;;;;;;19.09;48.68;99387.91;5031315;28;20053;-73
2023/03/31 08:11:23;;;;;;;4.22;1.08;;;;;;;19.07;48.54;99393.34;5003559;28;20048;-72
2023/03/31 08:13:48;;;;;;;5.60;1.40;;;;;;;19.09;48.71;99388.75;5032619;28;20087;-70
2023/03/31 08:16:13;;;;;;;5.80;1.17;;;;;;;19.08;48.66;99384.44;5028173;28;20029;-71
2023/03/31 08:18:39;;;;;;;5.43;1.83;;;;;;;19.08;48.22;99381.81;5033206;28;20032;-72
2023/03/31 08:21:06;;;;;;;3.08;0.90;;;;;;;19.08;48.69;99379.16;5031185;28;20052;-72
2023/03/31 08:23:32;;;;;;;4.10;1.10;;;;;;;19.09;48.68;99382.63;5026092;28;20044;-70
2023/03/31 08:26:27;;;;;;;6.10;1.20;;;;;;;19.14;49.17;99377.69;5029853;28;20047;-71
2023/03/31 08:28:52;;;;;;;;;;;;;;;19.31;48.83;99381.97;5021470;28;20796;-71
2023/03/31 08:31:20;;;;;;;5.47;1.27;;;;;;;19.35;48.73;99383.25;5040336;28;19962;-71
2023/03/31 08:33:45;;;;;;;5.95;1.58;;;;;;;19.36;48.77;99377.00;5025373;28;20375;-71
2023/03/31 08:36:12;;;;;;;6.85;1.17;;;;;;;19.30;48.87;99364.44;5005229;28;20044;-73
2023/03/31 08:38:44;;;;;;;4.40;1.15;;;;;;;19.27;48.90;99371.91;5033924;28;20033;-72
2023/03/31 08:41:33;;;;;;;6.40;1.60;;;;;;;19.27;48.85;99380.63;5034617;28;20041;-71
2023/03/31 08:44:03;;;;;;;3.60;1.20;;;;;;;19.25;48.87;99371.22;5030059;28;20032;-72
2023/03/31 08:46:32;;;;;;;4.82;1.17;;;;;;;19.28;48.70;99386.72;5035765;28;20033;-73
2023/03/31 08:48:59;;;;;;;4.47;1.27;;;;;;;19.27;48.75;99377.19;5041063;28;20275;-71
2023/03/31 08:51:31;;;;;;;8.52;1.45;;;;;;;19.24;48.79;99375.69;5024118;28;20417;-72
2023/03/31 08:54:02;;;;;;;3.80;1.10;;;;;;;19.24;48.46;99373.03;5031842;28;20116;-72
2023/03/31 08:56:29;;;;;;;5.95;1.50;;;;;;;19.25;48.79;99372.06;5040390;28;20504;-73
2023/03/31 08:59:00;;;;;;;5.03;1.45;;;;;;;19.25;48.79;99373.84;5027522;28;20103;-72
2023/03/31 09:01:52;;;;;;;4.10;1.17;;;;;;;19.23;48.83;99366.09;5033210;28;20037;-74
2023/03/31 09:04:36;;;;;;;5.88;1.60;;;;;;;19.24;48.73;99378.31;5034225;28;20440;-72
2023/03/31 09:07:13;;;;;;;5.67;1.57;;;;;;;19.22;48.82;99369.75;5024530;28;20667;-72
2023/03/31 09:10:13;;;;;;;6.97;1.42;;;;;;;19.23;48.95;99375.84;5021583;28;20032;-72
2023/03/31 09:13:10;;;;;;;6.55;1.55;;;;;;;19.23;48.66;99367.94;5030889;28;20069;-72
2023/03/31 09:15:44;;;;;;;5.03;1.80;;;;;;;19.19;48.66;99362.16;5027696;28;20357;-72
2023/03/31 09:18:30;;;;;;;7.55;2.28;;;;;;;19.18;48.69;99363.13;5024562;28;20029;-73
2023/03/31 09:21:09;;;;;;;5.53;1.40;;;;;;;19.18;48.97;99358.72;5041112;28;20216;-72
2023/03/31 09:23:43;;;;;;;6.78;1.88;;;;;;;19.18;48.94;99353.44;5027669;28;20425;-72
2023/03/31 09:26:21;;;;;;;6.90;1.65;;;;;;;19.18;48.73;99353.44;5044146;28;20072;-72
2023/03/31 09:28:47;;;;;;;4.97;1.20;;;;;;;19.19;48.73;99354.25;5034626;28;20037;-71
2023/03/31 09:31:17;;;;;;;5.80;1.70;;;;;;;19.18;48.53;99340.22;5037978;28;21039;-71
2023/03/31 09:33:47;;;;;;;6.25;1.77;;;;;;;19.18;48.70;99345.50;5033702;28;20028;-73
2023/03/31 09:36:18;;;;;;;6.80;2.00;;;;;;;19.16;48.58;99326.34;5023863;28;20036;-72
2023/03/31 09:38:45;;;;;;;6.88;1.73;;;;;;;19.12;48.54;99329.47;5030201;28;20044;-72
2023/03/31 09:41:13;;;;;;;5.68;1.50;;;;;;;19.18;48.61;99340.22;5036490;28;20478;-73
2023/03/31 09:43:40;;;;;;;6.72;1.70;;;;;;;19.17;48.43;99329.81;5038734;28;20052;-74
2023/03/31 09:46:35;;;;;;;5.47;1.70;;;;;;;19.20;48.59;99332.09;5015469;28;20037;-71
2023/03/31 09:49:06;;;;;;;6.80;1.70;;;;;;;19.21;48.54;99339.03;5021826;28;20041;-70
2023/03/31 09:51:36;;;;;;;4.65;1.23;;;;;;;19.18;48.67;99337.59;5025815;28;20661;-73
2023/03/31 09:54:30;;;;;;;4.05;1.38;;;;;;;19.21;48.89;99331.94;5023737;28;20065;-70
2023/03/31 09:56:56;;;;;;;;;;;;;;;19.27;48.81;99316.44;5033610;28;20470;-70
2023/03/31 09:59:29;;;;;;;6.47;1.60;;;;;;;19.36;48.77;99316.22;5037197;28;19962;-69
2023/03/31 10:01:58;;;;;;;6.50;1.57;;;;;;;19.42;48.47;99317.34;5022968;28;20282;-73
2023/03/31 10:04:30;;;;;;;7.97;1.95;;;;;;;19.47;48.54;99325.63;5030556;28;20111;-71
2023/03/31 10:06:57;;;;;;;6.43;1.70;;;;;;;19.48;48.77;99313.22;5034645;28;20033;-70
2023/03/31 10:09:29;;;;;;;5.85;1.38;;;;;;;19.39;48.93;99318.53;5031444;28;20037;-69
2023/03/31 10:12:01;;;;;;;4.93;1.40;;;;;;;19.39;48.83;99322.97;5024819;28;20086;-70
2023/03/31 10:14:53;;;;;;;6.70;1.65;;;;;;;19.36;48.88;99320.69;5027314;28;20029;-70
2023/03/31 10:17:21;;;;;;;10.60;2.45;;;;;;;19.36;48.83;99312.78;5028145;28;20100;-71
2023/03/31 10:19:50;;;;;;;6.90;1.40;;;;;;;19.29;49.14;99311.78;5035649;28;20508;-71
2023/03/31 10:22:27;;;;;;;5.35;1.40;;;;;;;19.31;49.38;99305.34;5023116;28;20033;-70
2023/03/31 10:24:52;;;;;;;7.25;1.67;;;;;;;19.36;49.34;99315.41;5027272;28;20041;-73
2023/03/31 10:27:26;;;;;;;6.18;1.63;;;;;;;19.36;49.26;99299.56;5019729;28;20041;-69
2023/03/31 10:29:53;;;;;;;;;;;;;;;19.41;49.37;99297.22;5024649;28;20324;-69
2023/03/31 10:32:27;;;;;;;7.35;2.10;;;;;;;19.37;49.36;99295.91;5043149;28;19916;-70
2023/03/31 10:34:54;;;;;;;8.23;1.70;;;;;;;19.42;49.13;99296.22;4950370;28;20046;-67
2023/03/31 10:37:24;;;;;;;10.07;2.30;;;;;;;19.40;49.45;99306.16;4983701;28;20394;-68
2023/03/31 10:40:24;;;;;;;6.28;1.55;;;;;;;19.37;49.32;99294.09;4995238;28;20034;-71
2023/03/31 10:43:03;;;;;;;7.80;2.00;;;;;;;19.37;49.50;99286.16;4983263;28;20600;-69
2023/03/31 10:45:35;;;;;;;9.98;1.88;;;;;;;19.37;49.15;99288.81;4994600;28;20052;-70
2023/03/31 10:48:00;;;;;;;9.15;1.95;;;;;;;19.37;48.93;99283.53;4996959;28;20034;-68
2023/03/31 10:50:29;;;;;;;5.97;1.67;;;;;;;19.36;48.79;99275.78;4997007;28;20126;-69
2023/03/31 10:53:02;;;;;;;6.20;1.67;;;;;;;19.34;48.99;99275.97;4996710;28;20042;-67
2023/03/31 10:55:38;;;;;;;6.68;1.77;;;;;;;19.36;48.92;99275.78;4983545;28;20684;-68
2023/03/31 10:58:18;;;;;;;8.18;1.65;;;;;;;19.34;48.94;99277.75;4967812;28;20706;-67
2023/03/31 11:01:03;;;;;;;6.70;1.70;;;;;;;19.36;48.91;99281.06;4985292;28;20030;-67
2023/03/31 11:03:41;;;;;;;7.07;1.65;;;;;;;19.37;49.16;99278.25;4985118;28;20029;-69
2023/03/31 11:06:25;;;;;;;7.40;1.92;;;;;;;19.36;48.83;99275.78;4983123;28;20072;-68
2023/03/31 11:09:21;;;;;;;6.63;2.13;;;;;;;19.27;48.67;99263.59;4983290;28;20068;-68
2023/03/31 11:12:20;;;;;;;9.48;1.60;;;;;;;19.32;48.78;99274.47;4983211;28;20034;-69
2023/03/31 11:15:00;;;;;;;6.50;1.58;;;;;;;19.30;48.79;99269.38;4989319;28;20108;-68
2023/03/31 11:17:46;;;;;;;7.90;1.90;;;;;;;19.32;48.61;99275.28;5002500;28;20442;-70
2023/03/31 11:20:27;;;;;;;8.25;2.38;;;;;;;19.33;48.89;99266.38;4990037;28;20499;-69
2023/03/31 11:22:56;;;;;;;7.97;1.77;;;;;;;19.25;48.64;99249.72;4995524;28;20167;-68
2023/03/31 11:25:29;;;;;;;5.95;1.60;;;;;;;19.33;49.12;99253.19;4993911;28;20169;-69
2023/03/31 11:28:21;;;;;;;5.87;1.63;;;;;;;19.32;48.89;99262.09;4999934;28;20084;-69
2023/03/31 11:30:56;;;;;;;9.23;2.10;;;;;;;19.31;48.96;99257.81;5000857;28;20033;-69
2023/03/31 11:33:56;;;;;;;8.98;1.95;;;;;;;19.32;48.85;99248.88;5001262;28;20500;-68
2023/03/31 11:37:07;;;;;;;7.72;1.88;;;;;;;19.32;48.87;99240.94;4949270;28;20474;-69
2023/03/31 11:40:07;;;;;;;7.43;1.33;;;;;;;19.34;48.94;99232.84;4980580;28;20045;-69
2023/03/31 11:42:40;;;;;;;7.53;1.73;;;;;;;19.31;48.94;99230.56;4990726;28;20037;-69
2023/03/31 11:45:20;;;;;;;5.82;1.58;;;;;;;19.31;48.73;99227.91;4990352;28;20068;-69
2023/03/31 11:47:52;;;;;;;8.45;2.13;;;;;;;19.31;48.68;99220.84;4997914;28;20580;-70
2023/03/31 11:50:25;;;;;;;6.97;1.80;;;;;;;19.30;48.40;99242.94;5001827;28;20080;-70